Time;durP1;ratioP1;P1;durP2;ratioP2;P2;SDS_P1;SDS_P2;PMS_P1;PMS_P2;Temp;Humidity;BMP_temperature;BMP_pressure;BME280_temperature;BME280_humidity;BME280_pressure;Samples;Min_cycle;Max_cycle;Signal;HPM_P1;HPM_P2
2022/06/21 00:01:00;;;;;;;3.38;1.90;;;;;;;11.03;96.10;101769.44;5028105;28;20051;-77
2022/06/21 00:03:26;;;;;;;3.15;1.90;;;;;;;11.02;96.16;101772.13;5014787;28;20041;-77
2022/06/21 00:05:53;;;;;;;2.75;2.00;;;;;;;10.99;96.29;101760.72;5028203;28;20034;-77
2022/06/21 00:08:45;;;;;;;2.97;1.85;;;;;;;10.97;96.79;101754.63;5029136;28;20561;-77
2022/06/21 00:11:18;;;;;;;2.35;1.63;;;;;;;10.95;96.67;101751.13;5012660;28;20048;-77
2022/06/21 00:13:43;;;;;;;2.90;1.73;;;;;;;10.92;96.41;101753.91;5010853;28;20620;-77
2022/06/21 00:16:12;;;;;;;4.65;1.90;;;;;;;10.90;96.64;101750.41;5027179;28;20057;-77
2022/06/21 00:18:38;;;;;;;2.47;1.80;;;;;;;10.90;96.99;101747.75;5012374;28;20409;-77
2022/06/21 00:21:19;;;;;;;3.25;1.60;;;;;;;10.93;97.67;101752.97;5012096;28;20026;-77
2022/06/21 00:23:47;;;;;;;3.17;1.60;;;;;;;10.89;96.47;101751.34;5013180;28;20042;-76
2022/06/21 00:26:13;;;;;;;3.80;1.98;;;;;;;10.86;96.74;101754.09;5010333;28;20033;-76
2022/06/21 00:28:39;;;;;;;1.95;1.55;;;;;;;10.85;96.58;101747.91;5027876;28;20124;-76
2022/06/21 00:31:13;;;;;;;3.22;1.60;;;;;;;10.83;96.72;101749.75;4994725;28;20041;-76
2022/06/21 00:33:39;;;;;;;4.82;2.00;;;;;;;10.79;97.01;101742.81;5010684;28;20090;-76
2022/06/21 00:36:12;;;;;;;2.40;2.20;;;;;;;10.77;97.02;101746.41;5010624;28;21474;-76
2022/06/21 00:38:38;;;;;;;2.72;2.28;;;;;;;10.73;96.70;101749.19;5013141;28;20030;-76
2022/06/21 00:41:06;;;;;;;3.67;2.50;;;;;;;10.71;97.00;101758.09;5011160;28;20486;-77
2022/06/21 00:43:36;;;;;;;2.30;2.08;;;;;;;10.70;97.38;101751.94;5027731;28;20036;-77
2022/06/21 00:46:01;;;;;;;4.20;2.75;;;;;;;10.69;97.06;101741.38;5027046;28;20033;-76
2022/06/21 00:48:39;;;;;;;6.03;1.95;;;;;;;10.70;97.83;101740.47;5006930;28;20041;-76
2022/06/21 00:51:24;;;;;;;3.85;1.88;;;;;;;10.70;98.42;101733.41;5010573;28;20850;-76
2022/06/21 00:53:53;;;;;;;4.55;1.85;;;;;;;10.69;97.70;101733.44;5025667;28;20041;-76
2022/06/21 00:56:41;;;;;;;2.92;1.95;;;;;;;10.68;99.01;101734.38;4993523;28;20475;-76
2022/06/21 00:59:25;;;;;;;4.78;2.20;;;;;;;10.68;99.64;101732.56;5007355;28;21419;-76
2022/06/21 01:01:54;;;;;;;5.72;2.20;;;;;;;10.69;99.60;101729.00;5006297;28;20488;-76
2022/06/21 01:04:34;;;;;;;3.75;1.90;;;;;;;10.71;99.43;101731.59;5012892;28;20094;-76
2022/06/21 01:07:02;;;;;;;5.30;1.98;;;;;;;10.66;98.87;101734.41;4994521;28;20107;-75
2022/06/21 01:09:52;;;;;;;4.28;1.98;;;;;;;10.61;98.96;101731.03;5008925;28;20049;-76
2022/06/21 01:12:23;;;;;;;6.32;2.17;;;;;;;10.58;98.48;101729.34;5024067;28;20539;-76
2022/06/21 01:14:58;;;;;;;4.07;1.75;;;;;;;10.54;98.16;101730.38;5022932;28;20074;-77
2022/06/21 01:17:25;;;;;;;2.50;1.80;;;;;;;10.54;98.36;101729.50;4999824;28;20599;-76
2022/06/21 01:19:57;;;;;;;2.88;1.80;;;;;;;10.53;98.78;101730.41;5023991;28;20021;-76
2022/06/21 01:22:32;;;;;;;2.85;2.10;;;;;;;10.53;99.22;101731.28;5011353;28;20089;-76
2022/06/21 01:25:35;;;;;;;6.70;1.90;;;;;;;10.52;99.42;101726.03;5007456;28;20045;-76
2022/06/21 01:28:01;;;;;;;1.90;1.80;;;;;;;10.49;98.87;101719.03;5006905;28;20133;-76
2022/06/21 01:30:28;;;;;;;2.72;1.98;;;;;;;10.48;98.68;101724.38;5007193;28;20111;-77
2022/06/21 01:32:56;;;;;;;4.18;1.95;;;;;;;10.45;98.70;101712.97;5009466;28;20565;-77
2022/06/21 01:35:28;;;;;;;4.20;2.20;;;;;;;10.42;98.71;101713.06;5006358;28;20045;-76
2022/06/21 01:37:55;;;;;;;2.42;2.22;;;;;;;10.41;98.41;101707.81;5008085;28;20476;-76
2022/06/21 01:40:25;;;;;;;4.82;2.55;;;;;;;10.40;99.07;101698.13;5010916;28;20026;-76
2022/06/21 01:42:54;;;;;;;4.38;2.45;;;;;;;10.37;98.84;101712.31;5007263;28;20041;-76
2022/06/21 01:45:22;;;;;;;4.82;2.40;;;;;;;10.35;98.64;101708.84;5021890;28;20116;-77
2022/06/21 01:47:52;;;;;;;5.65;2.42;;;;;;;10.34;99.58;101709.75;5022390;28;20118;-76
2022/06/21 01:50:20;;;;;;;3.45;2.70;;;;;;;10.32;99.61;101709.81;4992293;28;20426;-76
2022/06/21 01:52:47;;;;;;;4.05;2.20;;;;;;;10.32;100.00;101703.66;5012202;28;20140;-77
2022/06/21 01:55:24;;;;;;;2.65;2.08;;;;;;;10.30;100.00;101703.69;5007178;28;20323;-76
2022/06/21 01:57:50;;;;;;;4.45;2.40;;;;;;;10.28;100.00;101694.94;4991350;28;20566;-76
2022/06/21 02:00:17;;;;;;;2.85;1.85;;;;;;;10.27;100.00;101694.97;5007093;28;20065;-76
2022/06/21 02:02:46;;;;;;;2.70;2.22;;;;;;;10.25;100.00;101680.94;5008438;28;20033;-76
2022/06/21 02:05:16;;;;;;;2.33;2.13;;;;;;;10.22;100.00;101678.38;5006343;28;20034;-76
2022/06/21 02:07:48;;;;;;;2.50;2.17;;;;;;;10.20;100.00;101683.72;5010280;28;20225;-77
2022/06/21 02:10:32;;;;;;;3.47;2.33;;;;;;;10.16;100.00;101682.97;5022000;28;20095;-76
2022/06/21 02:13:21;;;;;;;4.60;2.13;;;;;;;10.14;100.00;101687.41;5008043;28;20034;-76
2022/06/21 02:15:50;;;;;;;5.38;2.28;;;;;;;10.12;100.00;101683.06;4990075;28;20502;-76
2022/06/21 02:18:17;;;;;;;3.35;2.28;;;;;;;10.10;100.00;101677.84;5008403;28;20493;-76
2022/06/21 02:20:48;;;;;;;3.28;2.10;;;;;;;10.07;100.00;101680.56;5006466;28;20468;-76
2022/06/21 02:23:15;;;;;;;3.33;2.25;;;;;;;10.04;100.00;101685.97;5007856;28;20621;-76
2022/06/21 02:25:42;;;;;;;3.50;2.50;;;;;;;10.03;100.00;101684.22;5021491;28;20480;-76
2022/06/21 02:28:10;;;;;;;3.55;2.60;;;;;;;10.02;100.00;101690.44;5019778;28;20030;-77
2022/06/21 02:30:36;;;;;;;3.35;2.38;;;;;;;10.00;100.00;101694.88;5020300;28;20081;-76
2022/06/21 02:33:03;;;;;;;3.20;2.60;;;;;;;10.00;100.00;101695.78;5022954;28;21274;-77
2022/06/21 02:35:55;;;;;;;3.75;2.53;;;;;;;9.98;100.00;101688.78;5024671;28;20092;-76
2022/06/21 02:38:24;;;;;;;3.25;2.70;;;;;;;9.95;100.00;101686.22;5021518;28;20029;-76
2022/06/21 02:41:03;;;;;;;5.00;3.00;;;;;;;9.94;100.00;101687.13;5002274;28;20099;-77
2022/06/21 02:43:32;;;;;;;5.20;2.60;;;;;;;9.94;100.00;101674.78;5011243;28;20406;-76
2022/06/21 02:46:29;;;;;;;5.28;2.72;;;;;;;9.91;100.00;101672.22;5025594;28;20048;-76
2022/06/21 02:49:00;;;;;;;3.83;2.42;;;;;;;9.88;100.00;101670.56;4990994;28;20057;-76
2022/06/21 02:51:30;;;;;;;5.03;2.50;;;;;;;9.86;100.00;101664.41;5008401;28;20034;-76
2022/06/21 02:54:09;;;;;;;4.50;2.40;;;;;;;9.85;100.00;101661.81;5009612;28;20038;-77
2022/06/21 02:56:48;;;;;;;4.20;2.72;;;;;;;9.83;100.00;101664.53;5021158;28;20762;-76
2022/06/21 02:59:15;;;;;;;2.40;2.20;;;;;;;9.80;100.00;101663.75;5004844;28;20045;-76
2022/06/21 03:01:53;;;;;;;2.33;2.05;;;;;;;9.77;100.00;101659.41;5005738;28;20123;-76
2022/06/21 03:04:40;;;;;;;3.33;2.33;;;;;;;9.73;100.00;101658.63;5025181;28;20033;-77
2022/06/21 03:07:06;;;;;;;3.28;2.30;;;;;;;9.73;100.00;101653.34;5009533;28;20126;-76
2022/06/21 03:09:33;;;;;;;2.70;2.35;;;;;;;9.71;100.00;101649.00;5007391;28;20099;-76
2022/06/21 03:12:01;;;;;;;5.32;2.83;;;;;;;9.68;100.00;101646.44;5013457;28;20038;-77
2022/06/21 03:14:27;;;;;;;2.25;2.05;;;;;;;9.66;100.00;101649.16;5010749;28;20401;-77
2022/06/21 03:16:54;;;;;;;3.88;2.28;;;;;;;9.64;100.00;101651.81;4994199;28;20044;-76
2022/06/21 03:19:24;;;;;;;2.88;2.58;;;;;;;9.65;100.00;101655.34;5009101;28;20040;-76
2022/06/21 03:21:49;;;;;;;4.68;2.35;;;;;;;9.65;100.00;101650.91;5008754;28;21422;-76
2022/06/21 03:24:18;;;;;;;5.78;2.63;;;;;;;9.64;100.00;101650.94;5010924;28;20065;-76
2022/06/21 03:26:48;;;;;;;3.72;2.60;;;;;;;9.63;100.00;101651.84;5014157;28;20041;-77
2022/06/21 03:29:13;;;;;;;3.17;2.88;;;;;;;9.64;100.00;101654.47;5013160;28;20125;-76
2022/06/21 03:31:42;;;;;;;4.50;2.80;;;;;;;9.67;100.00;101657.94;5025456;28;20694;-76
2022/06/21 03:34:15;;;;;;;4.90;3.00;;;;;;;9.69;100.00;101653.47;5024758;28;20365;-76
2022/06/21 03:36:41;;;;;;;2.95;2.05;;;;;;;9.70;100.00;101653.41;5024604;28;21384;-76
2022/06/21 03:39:17;;;;;;;3.92;2.92;;;;;;;9.73;100.00;101645.41;5025704;28;20587;-76
2022/06/21 03:41:44;;;;;;;5.65;2.90;;;;;;;9.78;100.00;101647.91;5004301;28;20120;-76
2022/06/21 03:44:29;;;;;;;5.13;2.83;;;;;;;9.83;100.00;101661.88;4993395;28;20261;-76
2022/06/21 03:47:09;;;;;;;3.30;2.97;;;;;;;9.87;100.00;101666.16;5025170;28;20424;-76
2022/06/21 03:49:44;;;;;;;4.20;3.15;;;;;;;9.91;100.00;101674.84;5010970;28;20032;-76
2022/06/21 03:52:41;;;;;;;3.92;3.20;;;;;;;9.99;100.00;101670.22;5011257;28;20060;-77
2022/06/21 03:55:13;;;;;;;3.97;2.90;;;;;;;10.04;100.00;101662.16;4995883;28;21843;-76
2022/06/21 03:57:45;;;;;;;4.93;2.92;;;;;;;10.08;100.00;101666.41;5026068;28;20044;-76
2022/06/21 04:00:12;;;;;;;4.57;3.13;;;;;;;10.13;100.00;101661.88;5008801;28;20478;-76
2022/06/21 04:03:08;;;;;;;6.63;3.33;;;;;;;10.18;100.00;101664.38;4992049;28;20496;-75
2022/06/21 04:05:38;;;;;;;9.02;3.22;;;;;;;10.22;100.00;101673.94;5012184;28;20526;-76
2022/06/21 04:08:18;;;;;;;6.15;3.13;;;;;;;10.27;100.00;101671.16;5012179;28;20052;-76
2022/06/21 04:10:49;;;;;;;3.60;2.95;;;;;;;10.35;100.00;101670.94;5023886;28;20096;-76
2022/06/21 04:13:19;;;;;;;3.97;3.55;;;;;;;10.37;100.00;101671.75;5012722;28;20488;-76
2022/06/21 04:16:12;;;;;;;4.78;2.85;;;;;;;10.44;100.00;101674.19;5025389;28;20048;-76
2022/06/21 04:18:55;;;;;;;6.53;2.78;;;;;;;10.51;100.00;101666.06;5012347;28;20171;-76
2022/06/21 04:21:26;;;;;;;3.67;2.17;;;;;;;10.54;100.00;101672.13;5027355;28;20130;-75
2022/06/21 04:24:19;;;;;;;3.13;2.50;;;;;;;10.58;100.00;101672.88;5013363;28;20025;-76
2022/06/21 04:26:46;;;;;;;3.13;1.75;;;;;;;10.60;100.00;101671.03;5009166;28;20183;-76
2022/06/21 04:29:24;;;;;;;4.18;2.58;;;;;;;10.64;100.00;101683.28;5011221;28;20068;-76
2022/06/21 04:31:57;;;;;;;3.05;2.45;;;;;;;10.65;100.00;101677.06;5009851;28;20566;-76
2022/06/21 04:34:35;;;;;;;5.18;2.50;;;;;;;10.68;100.00;101679.59;5015087;28;20147;-76
2022/06/21 04:37:10;;;;;;;3.28;2.80;;;;;;;10.70;100.00;101675.13;5010585;28;21963;-76
2022/06/21 04:39:39;;;;;;;6.25;2.75;;;;;;;10.76;100.00;101666.13;4991842;28;20130;-77
2022/06/21 04:42:10;;;;;;;4.43;3.08;;;;;;;10.81;100.00;101664.19;5009527;28;20052;-77
2022/06/21 04:44:39;;;;;;;4.90;3.10;;;;;;;10.88;100.00;101667.47;4993504;28;20048;-77
2022/06/21 04:47:05;;;;;;;3.35;2.83;;;;;;;10.93;100.00;101662.91;5006833;28;20083;-76
2022/06/21 04:49:39;;;;;;;3.42;3.00;;;;;;;11.00;100.00;101667.06;5009454;28;20670;-77
2022/06/21 04:52:11;;;;;;;6.28;2.65;;;;;;;11.08;100.00;101668.59;5006131;28;20565;-77
2022/06/21 04:54:38;;;;;;;5.30;2.72;;;;;;;11.15;100.00;101667.44;5011674;28;20036;-77
2022/06/21 04:57:06;;;;;;;3.20;2.40;;;;;;;11.21;100.00;101672.53;5024245;28;20116;-77
2022/06/21 04:59:33;;;;;;;3.72;3.15;;;;;;;11.27;100.00;101669.69;5011084;28;20033;-77
2022/06/21 05:01:59;;;;;;;4.90;3.00;;;;;;;11.35;100.00;101668.53;5010257;28;20025;-77
2022/06/21 05:04:34;;;;;;;5.13;2.78;;;;;;;11.45;100.00;101679.69;5025156;28;20045;-77
2022/06/21 05:07:04;;;;;;;3.00;2.70;;;;;;;11.54;100.00;101685.53;5027115;28;20092;-77
2022/06/21 05:09:31;;;;;;;6.32;2.97;;;;;;;11.63;100.00;101681.69;5026393;28;20603;-77
2022/06/21 05:12:11;;;;;;;5.20;2.85;;;;;;;11.76;100.00;101697.16;5027303;28;20041;-77
2022/06/21 05:14:41;;;;;;;5.40;2.70;;;;;;;11.87;100.00;101688.78;5008942;28;20037;-77
2022/06/21 05:17:13;;;;;;;3.42;2.60;;;;;;;11.93;100.00;101685.91;5025547;28;20522;-77
2022/06/21 05:19:41;;;;;;;2.63;2.42;;;;;;;11.99;100.00;101677.69;4991927;28;20029;-77
2022/06/21 05:22:28;;;;;;;3.40;2.30;;;;;;;12.11;100.00;101678.19;5026881;28;20033;-77
2022/06/21 05:24:55;;;;;;;5.22;2.95;;;;;;;12.30;100.00;101679.19;5012153;28;20052;-77
2022/06/21 05:27:23;;;;;;;2.47;2.00;;;;;;;12.46;100.00;101666.19;5024196;28;20036;-77
2022/06/21 05:29:54;;;;;;;4.90;3.13;;;;;;;12.55;100.00;101672.91;5024207;28;20018;-77
2022/06/21 05:32:25;;;;;;;5.75;2.65;;;;;;;12.64;100.00;101671.66;5012623;28;20048;-77
2022/06/21 05:34:54;;;;;;;8.25;2.80;;;;;;;12.73;100.00;101665.09;5009876;28;20057;-77
2022/06/21 05:37:35;;;;;;;4.57;2.47;;;;;;;12.81;100.00;101665.63;5009943;28;20050;-77
2022/06/21 05:40:33;;;;;;;4.07;2.88;;;;;;;13.01;100.00;101666.59;4997468;28;20507;-77
2022/06/21 05:42:59;;;;;;;2.85;2.65;;;;;;;13.26;100.00;101668.19;5011220;28;20037;-77
2022/06/21 05:45:29;;;;;;;4.57;2.67;;;;;;;13.47;100.00;101677.06;5026639;28;20515;-77
2022/06/21 05:47:58;;;;;;;3.63;2.53;;;;;;;13.67;100.00;101670.00;5009860;28;20095;-77
2022/06/21 05:50:30;;;;;;;4.50;3.00;;;;;;;13.81;100.00;101664.03;5025861;28;20499;-77
2022/06/21 05:53:06;;;;;;;4.78;2.83;;;;;;;13.87;100.00;101661.09;5009373;28;20033;-77
2022/06/21 05:55:35;;;;;;;3.97;2.70;;;;;;;13.97;100.00;101673.03;5008631;28;20060;-77
2022/06/21 05:58:04;;;;;;;3.67;2.85;;;;;;;14.01;100.00;101664.91;5010673;28;20776;-77
2022/06/21 06:00:39;;;;;;;2.80;2.50;;;;;;;14.05;100.00;101662.00;5005529;28;20612;-77
2022/06/21 06:03:11;;;;;;;5.72;2.75;;;;;;;14.15;100.00;101659.78;5009492;28;20040;-76
2022/06/21 06:05:37;;;;;;;3.78;2.60;;;;;;;14.24;100.00;101659.34;5010761;28;20084;-77
2022/06/21 06:08:12;;;;;;;5.50;2.55;;;;;;;14.43;100.00;101658.44;5023187;28;20030;-77
2022/06/21 06:10:40;;;;;;;3.55;1.90;;;;;;;14.62;99.39;101654.88;5010822;28;20048;-77
2022/06/21 06:13:12;;;;;;;3.63;2.13;;;;;;;14.86;98.43;101657.31;4994054;28;20033;-79
2022/06/21 06:15:42;;;;;;;4.20;1.90;;;;;;;15.10;97.89;101659.63;5001274;28;20061;-80
2022/06/21 06:18:16;;;;;;;2.58;1.50;;;;;;;15.40;96.41;101656.28;4991962;28;20733;-79
2022/06/21 06:21:12;;;;;;;3.50;1.55;;;;;;;15.63;94.25;101663.06;5009642;28;20741;-77
2022/06/21 06:23:42;;;;;;;1.98;1.35;;;;;;;15.84;93.19;101645.03;4992193;28;20072;-81
2022/06/21 06:26:20;;;;;;;1.77;1.55;;;;;;;16.08;92.11;101641.13;4997227;28;20092;-88
2022/06/21 06:29:07;;;;;;;2.53;1.40;;;;;;;16.28;91.52;101645.31;5011829;28;20048;-83
2022/06/21 06:31:39;;;;;;;2.75;1.65;;;;;;;16.55;90.82;101644.69;4977125;28;20037;-85
2022/06/21 06:34:17;;;;;;;2.70;1.48;;;;;;;16.77;88.56;101643.44;4997327;28;20109;-86
2022/06/21 06:36:48;;;;;;;4.28;1.60;;;;;;;16.96;88.69;101646.72;4978347;28;20400;-86
2022/06/21 06:39:24;;;;;;;2.30;1.35;;;;;;;17.13;87.92;101652.03;5011272;28;20050;-86
2022/06/21 06:41:56;;;;;;;3.72;1.45;;;;;;;17.29;87.30;101660.88;5027577;28;20080;-86
2022/06/21 06:44:21;;;;;;;3.78;1.33;;;;;;;17.40;86.51;101656.66;5010092;28;20033;-85
2022/06/21 06:46:50;;;;;;;2.25;1.50;;;;;;;17.46;84.24;101664.31;5016937;28;20040;-87
2022/06/21 06:49:15;;;;;;;5.60;1.20;;;;;;;17.52;83.73;101661.25;4995412;28;20096;-86
2022/06/21 06:51:55;;;;;;;1.92;1.30;;;;;;;17.65;80.92;101666.69;5015556;28;20026;-85
2022/06/21 06:54:38;;;;;;;1.65;1.27;;;;;;;17.82;82.38;101678.19;5018283;28;20171;-87
2022/06/21 06:57:11;;;;;;;1.52;1.10;;;;;;;17.99;83.65;101675.31;5012125;28;20038;-87
2022/06/21 06:59:38;;;;;;;4.20;1.40;;;;;;;18.03;83.41;101682.16;5017533;28;20036;-87
2022/06/21 07:02:18;;;;;;;1.55;0.93;;;;;;;18.16;81.77;101681.41;5017102;28;20119;-86
2022/06/21 07:04:47;;;;;;;3.28;1.08;;;;;;;18.22;78.45;101683.69;5032271;28;20037;-85
2022/06/21 07:07:22;;;;;;;1.42;1.05;;;;;;;18.30;76.90;101692.09;5031188;28;20033;-82
2022/06/21 07:09:55;;;;;;;1.95;1.27;;;;;;;18.32;75.77;101697.38;5000910;28;21146;-87
2022/06/21 07:12:24;;;;;;;2.10;1.27;;;;;;;18.23;78.35;101692.56;5015567;28;21778;-87
2022/06/21 07:15:14;;;;;;;1.20;1.00;;;;;;;18.17;77.93;101680.44;5020189;28;20026;-84
2022/06/21 07:17:41;;;;;;;2.55;1.30;;;;;;;18.19;78.58;101691.91;5037722;28;20032;-85
2022/06/21 07:20:37;;;;;;;4.25;1.33;;;;;;;18.16;75.92;101692.13;5025595;28;20040;-84
2022/06/21 07:23:13;;;;;;;2.58;1.40;;;;;;;18.10;74.33;101693.41;5009678;28;20041;-82
2022/06/21 07:25:51;;;;;;;2.42;1.30;;;;;;;18.09;76.95;101685.44;5017952;28;20485;-85
2022/06/21 07:28:34;;;;;;;3.33;1.20;;;;;;;18.00;71.06;101693.09;5028517;28;20025;-81
2022/06/21 07:31:05;;;;;;;3.78;1.30;;;;;;;17.71;74.20;101695.75;4996940;28;20067;-85
2022/06/21 07:33:36;;;;;;;1.55;1.25;;;;;;;17.57;76.28;101704.66;5017189;28;20061;-85
2022/06/21 07:36:09;;;;;;;5.00;1.50;;;;;;;17.35;73.38;101706.00;5013699;28;20045;-85
2022/06/21 07:38:40;;;;;;;2.45;1.48;;;;;;;17.43;75.99;101705.50;5013530;28;20025;-85
2022/06/21 07:41:25;;;;;;;2.55;1.30;;;;;;;17.62;75.68;101705.25;5014701;28;20041;-83
2022/06/21 07:43:54;;;;;;;1.67;1.27;;;;;;;17.82;77.39;101700.44;5014276;28;20328;-86
2022/06/21 07:46:40;;;;;;;1.73;1.27;;;;;;;17.79;75.03;101695.28;5015279;28;20035;-85
2022/06/21 07:49:22;;;;;;;2.00;1.40;;;;;;;17.63;73.27;101696.25;5026776;28;20546;-85
2022/06/21 07:51:50;;;;;;;4.33;1.53;;;;;;;17.67;75.99;101702.28;5029972;28;21461;-85
2022/06/21 07:54:23;;;;;;;2.55;1.35;;;;;;;17.72;74.76;101702.88;5015035;28;20130;-83
2022/06/21 07:56:58;;;;;;;;;;;;;;;17.66;71.56;101703.25;5017455;28;20064;-85
2022/06/21 07:59:47;;;;;;;2.60;1.35;;;;;;;17.94;74.46;101692.59;5018202;28;19924;-84
2022/06/21 08:08:00;;;;;;;1.63;1.20;;;;;;;18.70;73.89;101695.78;5030129;28;20040;-83
2022/06/21 08:10:33;;;;;;;3.00;1.70;;;;;;;18.95;73.62;101694.16;5031283;28;20143;-85
2022/06/21 08:13:00;;;;;;;2.55;1.50;;;;;;;19.17;73.31;101681.97;5033160;28;20520;-84
2022/06/21 08:15:31;;;;;;;2.00;1.27;;;;;;;19.42;72.99;101689.19;5027160;28;20712;-84
2022/06/21 08:18:15;;;;;;;1.35;1.25;;;;;;;19.65;70.88;101687.56;5015133;28;20025;-85
2022/06/21 08:20:43;;;;;;;2.13;1.38;;;;;;;19.60;70.95;101694.25;5012660;28;20052;-85
2022/06/21 08:23:29;;;;;;;1.38;1.27;;;;;;;19.81;65.18;101697.22;5012571;28;20033;-84
2022/06/21 08:26:01;;;;;;;1.40;1.30;;;;;;;19.69;68.74;101696.25;5010066;28;20030;-85
2022/06/21 08:28:33;;;;;;;2.28;1.73;;;;;;;19.27;65.11;101700.03;4998385;28;20534;-85
2022/06/21 08:31:11;;;;;;;1.30;1.20;;;;;;;18.97;68.17;101695.75;5028320;28;21061;-84
2022/06/21 08:33:47;;;;;;;1.48;1.38;;;;;;;18.71;68.20;101697.50;5016728;28;20471;-86
2022/06/21 08:36:35;;;;;;;2.63;1.33;;;;;;;18.53;66.32;101689.72;5017028;28;20030;-84
2022/06/21 08:39:08;;;;;;;2.00;1.20;;;;;;;18.44;68.77;101684.97;5008300;28;20057;-84
2022/06/21 08:41:56;;;;;;;1.45;1.30;;;;;;;18.53;69.64;101686.19;4979801;28;20097;-83
2022/06/21 08:45:40;;;;;;;2.42;1.20;;;;;;;18.78;68.91;101687.25;5016432;28;20512;-83
2022/06/21 08:47:59;;;;;;;5.65;1.63;;;;;;;19.16;69.36;101680.28;5011552;28;20195;-80
2022/06/21 08:50:43;;;;;;;3.80;2.00;;;;;;;19.39;71.31;101681.34;5026938;28;20045;-82
2022/06/21 08:53:13;;;;;;;2.17;1.40;;;;;;;19.70;72.00;101684.53;5010142;28;20033;-82
2022/06/21 08:55:48;;;;;;;3.38;1.65;;;;;;;20.04;70.83;101674.09;5009960;28;20044;-82
2022/06/21 08:58:25;;;;;;;2.33;1.30;;;;;;;20.19;68.74;101664.06;5008379;28;20581;-81
2022/06/21 09:01:11;;;;;;;2.58;1.20;;;;;;;20.20;64.72;101676.53;5011334;28;20576;-82
2022/06/21 09:03:46;;;;;;;1.55;1.25;;;;;;;20.05;67.32;101662.38;5008591;28;20143;-82
2022/06/21 09:06:21;;;;;;;1.88;1.27;;;;;;;19.90;67.11;101672.38;4998271;28;20420;-83
2022/06/21 09:09:13;;;;;;;3.08;1.50;;;;;;;20.02;67.72;101667.09;5014546;28;20032;-82
2022/06/21 09:11:51;;;;;;;3.22;1.80;;;;;;;20.16;68.84;101669.63;4993548;28;20061;-88
2022/06/21 09:14:28;;;;;;;1.70;1.40;;;;;;;20.11;60.88;101674.50;4995928;28;20052;-83
2022/06/21 09:17:31;;;;;;;2.05;1.13;;;;;;;20.03;65.18;101668.81;5012500;28;20408;-82
2022/06/21 09:20:29;;;;;;;5.43;1.48;;;;;;;20.26;61.63;101658.22;5003394;28;20511;-84
2022/06/21 09:23:32;;;;;;;2.03;1.17;;;;;;;20.21;64.30;101662.09;5010188;28;20033;-83
2022/06/21 09:26:09;;;;;;;1.60;1.50;;;;;;;20.20;67.07;101663.06;5011790;28;20078;-82
2022/06/21 09:28:47;;;;;;;1.23;1.05;;;;;;;20.28;66.88;101658.97;5010760;28;20119;-81
2022/06/21 09:31:27;;;;;;;1.60;1.20;;;;;;;20.47;66.35;101662.00;4982289;28;20610;-82
2022/06/21 09:34:09;;;;;;;2.72;1.40;;;;;;;20.70;64.99;101661.25;5010307;28;20037;-83
2022/06/21 09:37:03;;;;;;;2.90;1.48;;;;;;;20.98;66.09;101651.09;5026387;28;20131;-81
2022/06/21 09:39:40;;;;;;;1.50;1.13;;;;;;;21.20;62.64;101646.72;5025919;28;20069;-82
2022/06/21 09:42:39;;;;;;;2.33;1.27;;;;;;;21.32;61.61;101650.28;5028419;28;20065;-82
2022/06/21 09:45:27;;;;;;;2.83;1.23;;;;;;;21.42;61.41;101649.41;5012300;28;20380;-86
2022/06/21 09:48:12;;;;;;;2.30;1.02;;;;;;;21.53;58.50;101653.94;5012504;28;20048;-85
2022/06/21 09:51:01;;;;;;;1.38;1.20;;;;;;;21.49;59.59;101644.41;5026826;28;20037;-82
2022/06/21 09:53:38;;;;;;;3.05;1.17;;;;;;;21.64;60.75;101638.78;5007513;28;20021;-82
2022/06/21 09:56:16;;;;;;;3.22;1.20;;;;;;;21.63;57.39;101640.59;5007856;28;20038;-79
2022/06/21 09:58:44;;;;;;;0.98;0.85;;;;;;;21.58;59.70;101634.75;5008992;28;20053;-79
2022/06/21 10:01:29;;;;;;;1.95;1.25;;;;;;;21.31;55.04;101638.66;5009947;28;20548;-82
2022/06/21 10:04:16;;;;;;;1.75;1.40;;;;;;;20.91;57.98;101637.22;4995025;28;20033;-82
2022/06/21 10:07:16;;;;;;;2.20;1.33;;;;;;;20.75;56.31;101630.31;5012170;28;20120;-84
2022/06/21 10:10:08;;;;;;;2.30;1.30;;;;;;;20.63;59.59;101631.25;4994624;28;20464;-82
2022/06/21 10:12:57;;;;;;;3.10;1.42;;;;;;;20.67;60.06;101627.34;4995406;28;20353;-81
2022/06/21 10:15:42;;;;;;;1.75;1.23;;;;;;;20.80;59.42;101626.41;4996972;28;20041;-83
2022/06/21 10:18:11;;;;;;;2.75;1.50;;;;;;;20.99;60.52;101632.13;5012107;28;20033;-82
2022/06/21 10:20:40;;;;;;;2.13;1.20;;;;;;;21.09;60.05;101623.34;5008467;28;21491;-82
2022/06/21 10:23:24;;;;;;;1.45;1.27;;;;;;;21.22;60.21;101621.38;4993768;28;20485;-81
2022/06/21 10:26:16;;;;;;;1.75;1.35;;;;;;;21.50;60.27;101612.94;5014851;28;20475;-81
2022/06/21 10:29:12;;;;;;;2.75;1.20;;;;;;;21.42;58.22;101609.03;5011232;28;20068;-84
2022/06/21 10:31:52;;;;;;;2.05;1.50;;;;;;;21.32;59.10;101609.88;5024893;28;20029;-83
2022/06/21 10:34:55;;;;;;;1.85;1.15;;;;;;;21.23;57.74;101612.31;4994758;28;20041;-81
2022/06/21 10:37:21;;;;;;;;;;;;;;;21.06;54.20;101607.41;5011189;28;20116;-83
2022/06/21 10:40:38;;;;;;;1.80;1.10;;;;;;;20.90;57.78;101603.22;5011506;28;19929;-83
2022/06/21 10:43:03;;;;;;;1.88;1.20;;;;;;;20.86;59.57;101602.59;5001129;28;20050;-82
2022/06/21 10:45:49;;;;;;;2.35;1.20;;;;;;;20.89;58.67;101601.50;5010251;28;20091;-83
2022/06/21 10:48:50;;;;;;;3.40;1.40;;;;;;;21.12;56.32;101613.19;4991029;28;20044;-85
2022/06/21 10:51:31;;;;;;;1.45;1.00;;;;;;;21.11;56.58;101606.09;5006068;28;20599;-82
2022/06/21 10:54:34;;;;;;;2.85;1.20;;;;;;;21.05;56.24;101603.00;5025310;28;20722;-80
2022/06/21 10:57:09;;;;;;;;;;;;;;;21.16;57.15;101597.63;5026287;28;20041;-83
2022/06/21 11:02:45;;;;;;;3.75;1.40;;;;;;;21.12;55.13;101604.22;5023096;28;20037;-79
2022/06/21 11:05:11;;;;;;;2.83;1.17;;;;;;;20.95;58.37;101595.66;5013896;28;20503;-82
2022/06/21 11:07:47;;;;;;;1.45;1.15;;;;;;;20.72;58.23;101590.22;5012557;28;20030;-82
2022/06/21 11:10:17;;;;;;;1.25;0.90;;;;;;;20.86;59.00;101591.00;4991730;28;20219;-82
2022/06/21 11:12:54;;;;;;;0.85;0.70;;;;;;;21.22;58.13;101588.22;4997437;28;20061;-77
2022/06/21 11:15:38;;;;;;;0.85;0.70;;;;;;;21.35;57.00;101591.63;5012319;28;20046;-78
2022/06/21 11:18:30;;;;;;;2.60;1.05;;;;;;;21.34;53.99;101583.72;5012219;28;20391;-77
2022/06/21 11:21:18;;;;;;;1.17;0.98;;;;;;;21.28;55.62;101579.66;5002443;28;20046;-78
2022/06/21 11:23:53;;;;;;;1.60;1.00;;;;;;;21.24;55.37;101589.81;5028065;28;20033;-78
2022/06/21 11:26:34;;;;;;;1.98;1.30;;;;;;;21.20;56.03;101580.28;5015494;28;20237;-79
2022/06/21 11:29:13;;;;;;;1.90;1.30;;;;;;;21.19;56.63;101577.69;5026954;28;20037;-78
2022/06/21 11:32:03;;;;;;;1.70;0.95;;;;;;;21.26;55.45;101577.09;5013415;28;20025;-79
2022/06/21 11:34:47;;;;;;;3.10;1.02;;;;;;;21.38;56.33;101579.78;5012252;28;20038;-79
2022/06/21 11:37:16;;;;;;;2.45;1.25;;;;;;;21.42;55.74;101575.88;4999275;28;20029;-78
2022/06/21 11:39:56;;;;;;;1.38;1.10;;;;;;;21.37;56.07;101572.69;5034288;28;20053;-79
2022/06/21 11:42:26;;;;;;;2.72;1.10;;;;;;;21.46;57.01;101582.69;5013309;28;20025;-78
2022/06/21 11:45:12;;;;;;;2.67;1.10;;;;;;;21.46;56.84;101574.63;4997672;28;20049;-79
2022/06/21 11:47:57;;;;;;;2.33;0.90;;;;;;;21.54;55.24;101569.50;5029095;28;20033;-76
2022/06/21 11:50:36;;;;;;;1.30;1.00;;;;;;;21.76;56.77;101578.53;4998173;28;20044;-77
2022/06/21 11:53:15;;;;;;;2.03;1.20;;;;;;;21.87;56.36;101574.09;5011850;28;20045;-78
2022/06/21 11:55:48;;;;;;;1.23;0.90;;;;;;;21.66;53.79;101566.75;4999056;28;20064;-78
2022/06/21 11:58:38;;;;;;;1.65;1.27;;;;;;;21.65;55.07;101559.66;5033233;28;20045;-80
2022/06/21 12:01:11;;;;;;;1.85;1.20;;;;;;;21.67;54.83;101557.69;4987766;28;20060;-77
2022/06/21 12:03:46;;;;;;;2.38;1.00;;;;;;;21.77;56.04;101547.03;4998094;28;20385;-78
2022/06/21 12:06:37;;;;;;;1.75;1.00;;;;;;;21.89;54.33;101554.13;4998177;28;20405;-79
2022/06/21 12:09:24;;;;;;;1.73;0.98;;;;;;;21.97;55.21;101554.34;5000405;28;20132;-78
2022/06/21 12:12:06;;;;;;;1.20;1.10;;;;;;;21.88;54.71;101546.16;5012388;28;20310;-78
2022/06/21 12:15:00;;;;;;;1.67;1.25;;;;;;;21.66;54.38;101542.50;5012295;28;20045;-78